Time;durP1;ratioP1;P1;durP2;ratioP2;P2;SDS_P1;SDS_P2;PMS_P1;PMS_P2;Temp;Humidity;BMP_temperature;BMP_pressure;BME280_temperature;BME280_humidity;BME280_pressure;Samples;Min_cycle;Max_cycle;Signal;HPM_P1;HPM_P2
2023/01/07 00:01:04;;;;;;;1.85;1.73;;;;;;;7.29;58.78;98979.66;5008693;28;20201;-60
2023/01/07 00:03:29;;;;;;;2.00;1.70;;;;;;;6.90;58.46;98925.72;5010343;28;20210;-59
2023/01/07 00:06:01;;;;;;;1.83;1.67;;;;;;;6.83;58.53;98908.88;5010691;28;20629;-59
2023/01/07 00:08:31;;;;;;;2.00;1.83;;;;;;;6.99;58.36;98933.00;5010298;28;20195;-59
2023/01/07 00:11:00;;;;;;;1.92;1.60;;;;;;;7.03;58.04;98929.41;5010653;28;20175;-59
2023/01/07 00:13:25;;;;;;;2.20;2.05;;;;;;;7.01;57.99;98928.66;5029772;28;20647;-60
2023/01/07 00:15:51;;;;;;;3.65;1.90;;;;;;;6.88;58.73;98924.13;5029963;28;20213;-59
2023/01/07 00:18:16;;;;;;;1.73;1.63;;;;;;;7.16;59.33;98974.25;5029936;28;20214;-60
2023/01/07 00:20:42;;;;;;;3.28;1.48;;;;;;;6.12;58.97;98807.66;5029717;28;20174;-60
2023/01/07 00:23:07;;;;;;;1.80;1.70;;;;;;;6.90;59.98;98963.47;5030138;28;20648;-59
2023/01/07 00:25:32;;;;;;;2.33;2.13;;;;;;;6.67;60.70;98925.09;5066832;28;20267;-60
2023/01/07 00:27:58;;;;;;;2.33;2.13;;;;;;;6.96;60.38;98968.34;5072385;28;20240;-60
2023/01/07 00:30:23;;;;;;;2.33;2.13;;;;;;;6.24;60.76;98879.88;5073775;28;20635;-60
2023/01/07 00:33:05;;;;;;;2.72;2.00;;;;;;;6.60;62.11;98973.38;5073247;28;20212;-59
2023/01/07 00:35:35;;;;;;;2.15;1.92;;;;;;;6.63;62.31;98983.53;5073314;28;20251;-60
2023/01/07 00:38:02;;;;;;;4.47;1.90;;;;;;;6.46;62.67;98965.41;5073317;28;20169;-60
2023/01/07 00:40:32;;;;;;;3.45;2.08;;;;;;;6.55;62.78;98992.47;5073245;28;20169;-60
2023/01/07 00:43:05;;;;;;;3.50;2.13;;;;;;;6.22;62.50;98934.78;5073535;28;20177;-60
2023/01/07 00:45:34;;;;;;;2.67;2.00;;;;;;;5.83;62.61;98877.44;5037040;28;20273;-60
2023/01/07 00:48:02;;;;;;;2.58;1.90;;;;;;;6.26;63.37;98980.88;5035827;28;20171;-60
2023/01/07 00:50:30;;;;;;;2.10;2.00;;;;;;;5.52;63.32;98854.72;5035555;28;20178;-59
2023/01/07 00:52:55;;;;;;;2.55;2.00;;;;;;;5.93;63.49;98938.59;5036016;28;20521;-59
2023/01/07 00:55:22;;;;;;;1.92;1.83;;;;;;;6.19;64.10;98987.16;5035609;28;20198;-60
2023/01/07 00:57:47;;;;;;;1.92;1.83;;;;;;;6.16;64.50;98989.84;5035654;28;20217;-60
2023/01/07 01:00:15;;;;;;;2.10;1.90;;;;;;;6.14;65.12;98995.94;5035028;28;20593;-60
2023/01/07 01:02:41;;;;;;;1.95;1.80;;;;;;;6.07;65.33;98997.94;5035861;28;20571;-59
2023/01/07 01:05:07;;;;;;;2.90;2.00;;;;;;;6.09;65.73;99005.56;5035302;28;20170;-60
2023/01/07 01:07:33;;;;;;;1.80;1.50;;;;;;;5.62;65.40;98893.69;5035224;28;20700;-60
2023/01/07 01:09:59;;;;;;;2.50;1.90;;;;;;;6.06;64.41;98946.66;5035402;28;20175;-60
2023/01/07 01:12:25;;;;;;;1.33;1.23;;;;;;;6.17;63.90;98932.44;5035070;28;20332;-60
2023/01/07 01:14:51;;;;;;;1.92;1.60;;;;;;;6.59;63.05;98994.84;5035577;28;20667;-60
2023/01/07 01:17:16;;;;;;;1.30;1.20;;;;;;;6.64;63.09;98992.91;5035033;28;20261;-60
2023/01/07 01:19:41;;;;;;;1.60;1.50;;;;;;;6.76;62.75;98991.53;5034955;28;20182;-60
2023/01/07 01:22:07;;;;;;;2.20;1.35;;;;;;;6.62;61.39;98933.00;5035216;28;20261;-59
2023/01/07 01:24:33;;;;;;;1.85;1.33;;;;;;;6.49;61.37;98936.19;5035399;28;20171;-60
2023/01/07 01:26:58;;;;;;;1.40;1.30;;;;;;;6.73;61.42;98976.22;5034806;28;20644;-60
2023/01/07 01:29:23;;;;;;;1.15;1.13;;;;;;;6.44;60.53;98918.41;5034832;28;20175;-60
2023/01/07 01:31:49;;;;;;;1.42;1.20;;;;;;;6.85;60.46;98979.09;5034721;28;20228;-60
2023/01/07 01:34:14;;;;;;;4.30;3.15;;;;;;;6.92;60.39;98967.63;5035163;28;20190;-60
2023/01/07 01:36:40;;;;;;;1.95;1.67;;;;;;;6.96;59.98;98971.75;5034697;28;20173;-60
2023/01/07 01:39:06;;;;;;;1.52;1.40;;;;;;;6.50;60.00;98886.44;5033953;28;20170;-60
2023/01/07 01:41:31;;;;;;;1.30;1.20;;;;;;;6.80;59.71;98921.91;5034347;28;20178;-60
2023/01/07 01:43:56;;;;;;;1.50;1.40;;;;;;;6.82;59.82;98925.22;5034240;28;20304;-60
2023/01/07 01:46:39;;;;;;;2.00;1.52;;;;;;;6.91;59.26;98918.81;5034780;28;20182;-60
2023/01/07 01:49:24;;;;;;;1.50;1.40;;;;;;;7.38;59.95;98989.50;5035032;28;20209;-60
2023/01/07 01:52:04;;;;;;;1.50;1.35;;;;;;;6.73;62.15;98889.66;5034977;28;20181;-60
2023/01/07 01:54:31;;;;;;;1.50;1.33;;;;;;;6.96;63.00;98929.75;5034299;28;20193;-60
2023/01/07 01:57:00;;;;;;;1.15;1.15;;;;;;;7.10;63.79;98974.53;5034276;28;20178;-59
2023/01/07 01:59:28;;;;;;;3.05;1.50;;;;;;;7.18;63.90;98969.84;5034189;28;20170;-59
2023/01/07 02:01:55;;;;;;;1.40;1.30;;;;;;;6.70;62.91;98881.25;5034480;28;20228;-59
2023/01/07 02:04:23;;;;;;;1.13;1.08;;;;;;;7.16;61.30;98939.97;5033816;28;20713;-59
2023/01/07 02:07:01;;;;;;;2.03;1.30;;;;;;;6.81;60.32;98884.97;5034080;28;20659;-59
2023/01/07 02:09:26;;;;;;;0.93;0.93;;;;;;;6.85;59.95;98913.97;5034626;28;20166;-59
2023/01/07 02:11:54;;;;;;;3.03;2.15;;;;;;;7.16;59.78;98976.81;5033665;28;20228;-59
2023/01/07 02:14:35;;;;;;;2.30;2.10;;;;;;;7.26;59.49;98970.34;5034088;28;20705;-60
2023/01/07 02:17:42;;;;;;;1.98;1.80;;;;;;;7.33;59.19;98982.03;5034263;28;20173;-59
2023/01/07 02:20:45;;;;;;;1.70;1.60;;;;;;;7.27;59.18;98989.19;5031685;28;20209;-59
2023/01/07 02:23:58;;;;;;;1.60;1.50;;;;;;;6.92;59.21;98983.06;4968509;28;20196;-60
2023/01/07 02:27:00;;;;;;;3.10;1.75;;;;;;;6.70;60.40;98989.25;4953263;29;20276;-59
2023/01/07 02:29:55;;;;;;;1.60;1.50;;;;;;;6.70;60.00;98981.53;4953899;29;20694;-59
2023/01/07 02:32:35;;;;;;;1.75;1.65;;;;;;;6.70;60.92;98981.53;4896544;29;20214;-60
2023/01/07 02:35:15;;;;;;;2.53;1.90;;;;;;;6.60;60.77;98985.41;4896325;29;20250;-60
2023/01/07 02:38:07;;;;;;;1.30;1.30;;;;;;;6.61;60.94;98982.75;4896913;29;20293;-60
2023/01/07 02:40:42;;;;;;;1.77;1.67;;;;;;;6.33;61.06;98977.13;4894262;29;20207;-60
2023/01/07 02:43:20;;;;;;;1.55;1.45;;;;;;;6.32;61.01;98995.19;4896098;29;20242;-60
2023/01/07 02:45:45;;;;;;;1.67;1.58;;;;;;;6.16;62.08;98999.28;4896642;29;20210;-60
2023/01/07 02:48:13;;;;;;;2.65;2.15;;;;;;;6.15;61.84;98982.19;4896436;29;20218;-60
2023/01/07 02:50:39;;;;;;;1.90;1.80;;;;;;;5.78;62.36;98935.81;4895979;29;20191;-60
2023/01/07 02:53:09;;;;;;;1.88;1.77;;;;;;;5.84;62.16;98969.78;4895954;29;20187;-60
2023/01/07 02:55:50;;;;;;;2.83;2.00;;;;;;;5.94;62.34;98981.34;4896033;29;20567;-59
2023/01/07 02:58:34;;;;;;;1.73;1.60;;;;;;;5.59;62.55;98951.09;4896699;29;20167;-60
2023/01/07 03:01:18;;;;;;;1.98;1.58;;;;;;;5.92;62.89;99008.00;4939393;29;20247;-60
2023/01/07 03:04:12;;;;;;;1.60;1.55;;;;;;;5.66;62.90;98951.72;4953562;29;20632;-60
2023/01/07 03:07:27;;;;;;;2.35;2.10;;;;;;;5.89;63.64;99001.25;4953310;29;20173;-59
2023/01/07 03:10:09;;;;;;;1.55;1.42;;;;;;;5.60;63.48;98946.81;5004910;28;20285;-60
2023/01/07 03:13:01;;;;;;;2.20;2.00;;;;;;;5.88;63.52;99007.28;5031420;28;20244;-60
2023/01/07 03:15:31;;;;;;;2.75;2.30;;;;;;;5.90;63.29;99010.63;5030297;28;20297;-60
2023/01/07 03:18:02;;;;;;;1.70;1.60;;;;;;;5.89;63.70;98996.13;5031124;28;20261;-60
2023/01/07 03:20:30;;;;;;;3.88;1.83;;;;;;;6.05;62.82;99004.03;5030728;28;20178;-60
2023/01/07 03:22:57;;;;;;;2.30;2.20;;;;;;;5.81;62.49;98941.69;5030491;28;20192;-59
2023/01/07 03:25:26;;;;;;;3.78;1.58;;;;;;;6.03;61.75;98969.88;5030517;28;20665;-60
2023/01/07 03:27:53;;;;;;;1.70;1.60;;;;;;;6.19;61.49;98994.84;5030687;28;20300;-60
2023/01/07 03:30:19;;;;;;;2.03;1.50;;;;;;;6.33;60.98;99010.53;5030370;28;20182;-60
2023/01/07 03:32:59;;;;;;;1.60;1.50;;;;;;;6.00;60.83;98937.44;5030962;28;20198;-60
2023/01/07 03:35:27;;;;;;;1.50;1.40;;;;;;;5.94;61.54;98939.44;5030438;28;20767;-60
2023/01/07 03:37:53;;;;;;;2.55;1.92;;;;;;;5.97;62.08;98958.13;5030277;28;20261;-60
2023/01/07 03:40:19;;;;;;;1.90;1.80;;;;;;;6.19;62.56;98984.56;5030590;28;20608;-60
2023/01/07 03:42:47;;;;;;;1.60;1.50;;;;;;;5.76;62.50;98927.34;5033053;28;20186;-60
2023/01/07 03:45:19;;;;;;;2.20;2.00;;;;;;;5.91;62.59;98991.78;5032788;28;20261;-60
2023/01/07 03:47:50;;;;;;;2.33;1.95;;;;;;;5.64;63.45;98936.38;5032488;28;20205;-60
2023/01/07 03:50:16;;;;;;;2.47;2.25;;;;;;;5.97;64.42;98988.94;5032474;28;20637;-60
2023/01/07 03:52:42;;;;;;;1.85;1.75;;;;;;;5.85;64.80;98984.31;5032390;28;20637;-60
2023/01/07 03:55:08;;;;;;;2.80;1.75;;;;;;;6.11;67.49;99002.06;5032649;28;20197;-60
2023/01/07 03:57:34;;;;;;;4.20;2.58;;;;;;;6.11;68.12;98978.94;5032410;28;20186;-59
2023/01/07 04:00:00;;;;;;;2.42;2.20;;;;;;;6.05;68.74;98930.38;5032346;28;20174;-60
2023/01/07 04:02:26;;;;;;;4.75;2.95;;;;;;;6.41;66.97;98975.06;5032077;28;20189;-60
2023/01/07 04:04:51;;;;;;;1.73;1.63;;;;;;;6.20;68.89;98929.75;5034638;28;20186;-60
2023/01/07 04:07:17;;;;;;;1.60;1.50;;;;;;;6.70;68.82;98984.09;5034201;28;20711;-59
2023/01/07 04:09:43;;;;;;;2.05;1.85;;;;;;;6.35;68.74;98923.94;5034049;28;20177;-60
2023/01/07 04:12:08;;;;;;;2.00;1.50;;;;;;;6.29;69.10;98905.38;5033950;28;20602;-59
2023/01/07 04:14:34;;;;;;;1.77;1.67;;;;;;;6.57;69.81;98965.78;5033867;28;20224;-59
2023/01/07 04:16:59;;;;;;;2.15;1.50;;;;;;;6.46;70.61;98920.91;5034270;28;20209;-59
2023/01/07 04:19:24;;;;;;;4.80;2.38;;;;;;;6.61;70.07;98933.91;5033820;28;20642;-60
2023/01/07 04:21:50;;;;;;;5.32;2.70;;;;;;;6.90;71.22;98990.03;5033812;28;20194;-59
2023/01/07 04:24:15;;;;;;;5.28;3.28;;;;;;;6.49;72.53;98926.75;5034031;28;20249;-59
2023/01/07 04:26:41;;;;;;;9.05;4.82;;;;;;;6.84;71.21;98990.31;5033676;28;20389;-59
2023/01/07 04:29:26;;;;;;;5.32;3.08;;;;;;;6.55;72.38;98947.03;5054115;28;20700;-60
2023/01/07 04:31:52;;;;;;;4.28;3.20;;;;;;;6.79;72.29;98987.09;5053614;28;20206;-60
2023/01/07 04:34:17;;;;;;;6.80;4.50;;;;;;;6.44;72.05;98928.69;5070977;28;20303;-60
2023/01/07 04:36:42;;;;;;;7.18;4.80;;;;;;;6.94;71.81;99014.69;5073482;28;20173;-59
2023/01/07 04:39:08;;;;;;;15.23;6.72;;;;;;;6.98;71.75;99018.81;5073467;28;20726;-59
2023/01/07 04:41:33;;;;;;;5.70;3.63;;;;;;;6.70;72.09;99008.06;5073470;28;20188;-60
2023/01/07 04:43:59;;;;;;;6.72;3.63;;;;;;;6.47;71.92;98963.69;5073616;28;20185;-60
2023/01/07 04:46:24;;;;;;;4.07;3.20;;;;;;;6.24;71.77;98933.00;5073527;28;20181;-60
2023/01/07 04:48:50;;;;;;;5.43;3.30;;;;;;;6.49;71.87;98993.59;5073163;28;20173;-60
2023/01/07 04:51:15;;;;;;;6.82;4.47;;;;;;;6.32;72.20;98980.63;5073498;28;20180;-60
2023/01/07 04:53:41;;;;;;;4.75;3.15;;;;;;;6.61;72.35;99038.47;5073291;28;20304;-60
2023/01/07 04:56:06;;;;;;;5.50;4.47;;;;;;;6.42;72.42;99028.13;5073090;28;20177;-60
2023/01/07 04:58:32;;;;;;;7.07;3.97;;;;;;;6.06;72.57;98983.41;5073566;28;20177;-60
2023/01/07 05:00:58;;;;;;;4.57;3.85;;;;;;;6.41;72.24;99035.94;5073525;28;20265;-60
2023/01/07 05:03:24;;;;;;;3.83;3.15;;;;;;;5.79;72.23;98943.44;5073176;28;20179;-60
2023/01/07 05:05:50;;;;;;;5.78;4.05;;;;;;;6.32;72.66;99055.13;5069692;28;20176;-59
2023/01/07 05:08:15;;;;;;;6.43;4.25;;;;;;;6.20;73.05;99029.09;5035265;28;20197;-60
2023/01/07 05:10:41;;;;;;;5.63;3.92;;;;;;;5.72;73.17;98952.28;5035221;28;20236;-60
2023/01/07 05:13:06;;;;;;;4.03;3.50;;;;;;;6.08;73.80;99029.59;5034254;28;20174;-60
2023/01/07 05:15:32;;;;;;;6.75;3.42;;;;;;;5.89;75.10;99037.19;5034829;28;20210;-60
2023/01/07 05:17:58;;;;;;;5.22;3.30;;;;;;;5.66;75.36;99009.00;5035310;28;20232;-60
2023/01/07 05:20:23;;;;;;;4.13;3.35;;;;;;;5.86;75.32;99032.19;5035048;28;20170;-60
2023/01/07 05:22:48;;;;;;;4.88;3.35;;;;;;;5.81;75.73;99059.78;5035079;28;20628;-60
2023/01/07 05:25:14;;;;;;;6.00;3.53;;;;;;;5.47;75.85;99009.81;5035047;28;20182;-61
2023/01/07 05:27:39;;;;;;;3.80;2.95;;;;;;;5.71;75.57;99039.66;5034895;28;20684;-60
2023/01/07 05:30:05;;;;;;;4.05;3.05;;;;;;;5.59;75.73;99045.25;5034923;28;20166;-60
2023/01/07 05:32:31;;;;;;;5.53;3.50;;;;;;;5.24;76.52;99027.81;5034701;28;20241;-60
2023/01/07 05:34:56;;;;;;;4.70;3.15;;;;;;;5.38;76.57;99036.66;5034461;28;20194;-60
2023/01/07 05:37:22;;;;;;;5.22;3.85;;;;;;;5.13;76.49;99002.53;5034409;28;20256;-60
2023/01/07 05:39:47;;;;;;;6.80;3.60;;;;;;;5.00;76.49;98991.06;5034683;28;20179;-60
2023/01/07 05:42:12;;;;;;;3.85;3.45;;;;;;;4.97;76.86;99001.44;5035185;28;20202;-60
2023/01/07 05:44:38;;;;;;;9.93;7.85;;;;;;;5.40;77.05;99047.69;5035198;28;20257;-61
2023/01/07 05:47:03;;;;;;;7.88;3.70;;;;;;;5.44;76.75;99049.25;5034490;28;20174;-60
2023/01/07 05:49:29;;;;;;;6.18;3.38;;;;;;;5.14;76.89;98988.81;5035045;28;20174;-60
2023/01/07 05:51:54;;;;;;;3.40;3.15;;;;;;;5.09;77.77;98995.88;5034428;28;20613;-60
2023/01/07 05:54:20;;;;;;;4.05;3.00;;;;;;;5.13;77.96;98994.00;5034126;28;20194;-61
2023/01/07 05:56:45;;;;;;;2.88;2.67;;;;;;;4.97;78.17;98987.78;5034356;28;20205;-60
2023/01/07 05:59:10;;;;;;;3.67;2.90;;;;;;;5.31;78.60;99048.00;5034319;28;20690;-60
2023/01/07 06:01:36;;;;;;;5.20;3.22;;;;;;;5.19;78.34;99022.81;5034280;28;20269;-60
2023/01/07 06:04:01;;;;;;;6.25;4.85;;;;;;;5.34;78.42;99044.50;5034312;28;20189;-60
2023/01/07 06:06:27;;;;;;;5.43;4.40;;;;;;;5.14;78.58;99000.81;5033947;28;20184;-60
2023/01/07 06:08:52;;;;;;;11.05;4.57;;;;;;;5.44;78.50;99045.81;5034476;28;20621;-60
2023/01/07 06:11:18;;;;;;;9.00;4.20;;;;;;;5.50;78.26;99059.28;5034070;28;20182;-60
2023/01/07 06:13:43;;;;;;;4.20;3.72;;;;;;;5.04;78.41;98990.06;5034462;28;20220;-60
2023/01/07 06:16:09;;;;;;;5.75;3.45;;;;;;;5.26;79.27;99064.47;5034488;28;20532;-61
2023/01/07 06:18:35;;;;;;;8.55;5.03;;;;;;;5.21;80.13;99072.34;5034015;28;20654;-60
2023/01/07 06:21:00;;;;;;;3.78;2.97;;;;;;;5.07;78.00;99059.19;5034005;28;20599;-60
2023/01/07 06:23:26;;;;;;;4.75;3.55;;;;;;;5.13;79.02;99058.13;5033874;28;20170;-61
2023/01/07 06:25:51;;;;;;;5.13;3.05;;;;;;;5.09;78.87;99042.03;5034205;28;20175;-61
2023/01/07 06:28:17;;;;;;;3.25;2.95;;;;;;;4.91;79.40;99011.06;5033863;28;20189;-60
2023/01/07 06:30:46;;;;;;;3.35;2.85;;;;;;;5.30;79.05;99061.75;5033666;28;20182;-60
2023/01/07 06:33:12;;;;;;;6.65;3.70;;;;;;;5.37;79.13;99063.16;5033813;28;20193;-61
2023/01/07 06:35:38;;;;;;;4.38;3.03;;;;;;;5.08;79.23;99008.72;5033553;28;20206;-61
2023/01/07 06:38:03;;;;;;;3.67;3.30;;;;;;;5.48;78.22;99062.78;5033577;28;20178;-61
2023/01/07 06:40:29;;;;;;;4.00;3.17;;;;;;;5.59;78.56;99069.19;5033541;28;20170;-61
2023/01/07 06:42:54;;;;;;;12.35;7.70;;;;;;;5.60;78.74;99075.16;5033547;28;20162;-61
2023/01/07 06:45:20;;;;;;;21.15;12.30;;;;;;;5.50;78.72;99043.03;5033403;28;20268;-61
2023/01/07 06:47:47;;;;;;;35.65;18.05;;;;;;;5.52;77.74;99044.66;5033455;28;20205;-60
2023/01/07 06:50:13;;;;;;;24.27;13.65;;;;;;;5.60;77.43;99055.44;5033905;28;20186;-60
2023/01/07 06:52:38;;;;;;;28.55;15.25;;;;;;;5.55;76.83;99029.09;5033368;28;20237;-60
2023/01/07 06:55:04;;;;;;;11.00;7.30;;;;;;;5.44;74.25;98981.69;5033720;28;20204;-60
2023/01/07 06:57:29;;;;;;;7.22;5.50;;;;;;;6.06;72.79;99077.66;5033759;28;20563;-60
2023/01/07 06:59:55;;;;;;;5.80;4.55;;;;;;;5.91;72.17;99038.00;5033122;28;20193;-61
2023/01/07 07:02:27;;;;;;;28.77;13.35;;;;;;;6.05;70.21;99048.53;5033097;28;20221;-61
2023/01/07 07:04:53;;;;;;;13.20;7.07;;;;;;;5.79;71.55;99014.50;5032829;28;20194;-61
2023/01/07 07:07:19;;;;;;;5.03;3.80;;;;;;;6.34;69.29;99093.59;5032957;28;20338;-61
2023/01/07 07:09:45;;;;;;;8.52;5.15;;;;;;;6.38;69.46;99093.44;5033233;28;20228;-61
2023/01/07 07:12:11;;;;;;;5.85;4.38;;;;;;;5.82;68.81;99006.72;5032882;28;20171;-61
2023/01/07 07:14:37;;;;;;;15.75;7.97;;;;;;;6.21;68.44;99044.47;5032809;28;20201;-61
2023/01/07 07:17:03;;;;;;;5.65;3.80;;;;;;;6.16;66.31;99025.81;5032762;28;20185;-60
2023/01/07 07:19:28;;;;;;;4.88;3.22;;;;;;;6.17;66.46;99032.63;5049443;28;20584;-60
2023/01/07 07:21:54;;;;;;;9.07;5.38;;;;;;;6.20;67.09;99027.38;5052915;28;20177;-60
2023/01/07 07:24:19;;;;;;;5.20;4.13;;;;;;;6.27;66.40;99018.50;5052733;28;20205;-61
2023/01/07 07:26:45;;;;;;;9.77;6.15;;;;;;;6.56;66.63;99082.38;5052900;28;20257;-61
2023/01/07 07:29:10;;;;;;;8.55;5.70;;;;;;;6.64;67.25;99079.50;5053164;28;20205;-61
2023/01/07 07:31:36;;;;;;;14.60;8.63;;;;;;;6.45;67.42;99030.59;5052971;28;20172;-60
2023/01/07 07:34:02;;;;;;;8.52;5.25;;;;;;;6.79;65.63;99079.69;5052478;28;20255;-60
2023/01/07 07:36:27;;;;;;;2.42;2.22;;;;;;;6.47;62.64;99036.50;5051923;28;20170;-61
2023/01/07 07:38:53;;;;;;;7.18;5.15;;;;;;;6.39;64.35;99041.13;5052967;28;20181;-60
2023/01/07 07:41:19;;;;;;;9.48;5.90;;;;;;;6.49;65.00;99039.00;5052438;28;20177;-60
2023/01/07 07:43:44;;;;;;;10.23;6.70;;;;;;;6.69;65.42;99055.25;5053197;28;20173;-60
2023/01/07 07:46:09;;;;;;;10.68;7.13;;;;;;;7.07;66.20;99105.91;5052898;28;20173;-60
2023/01/07 07:48:35;;;;;;;5.28;4.20;;;;;;;6.67;63.34;99044.22;5052298;28;20632;-60
2023/01/07 07:51:00;;;;;;;6.50;4.50;;;;;;;7.06;63.95;99111.09;5052321;28;20230;-59
2023/01/07 07:53:26;;;;;;;6.72;4.68;;;;;;;7.08;63.80;99097.25;5052359;28;20174;-60
2023/01/07 07:55:54;;;;;;;5.97;4.30;;;;;;;7.14;62.46;99114.16;5052227;28;20343;-60
2023/01/07 07:58:20;;;;;;;4.38;3.35;;;;;;;7.05;61.93;99112.00;5052291;28;20177;-59
2023/01/07 08:00:45;;;;;;;3.10;2.70;;;;;;;6.72;61.73;99047.41;5052289;28;20174;-60
2023/01/07 08:03:11;;;;;;;6.00;3.53;;;;;;;7.12;61.61;99103.94;5052525;28;20205;-60
2023/01/07 08:05:43;;;;;;;8.63;5.03;;;;;;;6.92;62.12;99043.97;5052165;28;20192;-60
2023/01/07 08:08:11;;;;;;;5.05;4.30;;;;;;;6.99;61.13;99043.63;5052086;28;20272;-60
2023/01/07 08:10:37;;;;;;;5.90;3.75;;;;;;;7.16;61.08;99061.72;5052051;28;20173;-60
2023/01/07 08:13:03;;;;;;;5.78;4.00;;;;;;;7.46;60.72;99098.16;5051524;28;20234;-60
2023/01/07 08:15:29;;;;;;;3.75;3.38;;;;;;;7.63;59.79;99109.34;5051985;28;20201;-61
2023/01/07 08:17:59;;;;;;;6.20;3.40;;;;;;;7.71;59.80;99114.16;5052090;28;20524;-60
2023/01/07 08:20:25;;;;;;;8.57;4.75;;;;;;;7.84;58.71;99116.09;5052064;28;20174;-60
2023/01/07 08:22:51;;;;;;;11.18;6.22;;;;;;;7.29;58.65;99026.81;5051884;28;20182;-60
2023/01/07 08:25:16;;;;;;;3.78;2.75;;;;;;;7.88;58.10;99106.47;5052338;28;20180;-61
2023/01/07 08:27:41;;;;;;;5.72;3.50;;;;;;;7.96;58.47;99100.06;5051769;28;20165;-60
2023/01/07 08:30:07;;;;;;;4.30;3.60;;;;;;;7.61;58.10;99020.19;5052681;28;20170;-61
2023/01/07 08:32:33;;;;;;;8.43;3.65;;;;;;;8.15;58.30;99090.53;5051889;28;20611;-61
2023/01/07 08:34:58;;;;;;;5.82;2.90;;;;;;;8.44;57.01;99108.03;5051077;28;20284;-61
2023/01/07 08:37:24;;;;;;;3.03;2.67;;;;;;;8.22;56.57;99049.88;5052400;28;20174;-60
2023/01/07 08:39:49;;;;;;;5.25;2.80;;;;;;;8.52;56.02;99097.34;5029769;28;20183;-60
2023/01/07 08:42:14;;;;;;;2.40;2.20;;;;;;;8.28;55.63;99034.09;5028727;28;20286;-60
2023/01/07 08:44:40;;;;;;;3.67;2.72;;;;;;;8.62;56.14;99080.53;5029478;28;20297;-62
2023/01/07 08:47:05;;;;;;;2.75;2.55;;;;;;;8.47;56.17;99040.00;5029421;28;20679;-61
2023/01/07 08:49:31;;;;;;;2.92;2.67;;;;;;;8.41;56.57;99017.09;5033559;28;20190;-61
2023/01/07 08:51:56;;;;;;;3.28;2.80;;;;;;;8.66;56.45;99041.59;5033518;28;20616;-61
2023/01/07 08:54:21;;;;;;;3.47;2.53;;;;;;;8.47;55.42;98985.84;5033207;28;20348;-61
2023/01/07 08:56:47;;;;;;;3.25;2.95;;;;;;;9.18;54.82;99087.03;5032336;28;20174;-60
2023/01/07 08:59:12;;;;;;;3.53;2.53;;;;;;;8.94;53.85;99020.34;5033001;28;20175;-61
2023/01/07 09:01:38;;;;;;;2.58;2.38;;;;;;;8.78;53.69;98983.34;5033399;28;20804;-60
2023/01/07 09:04:03;;;;;;;2.72;2.53;;;;;;;9.07;53.84;99019.63;5033559;28;20536;-61
2023/01/07 09:06:29;;;;;;;2.08;1.98;;;;;;;9.14;53.14;99010.66;5032974;28;20565;-60
2023/01/07 09:08:54;;;;;;;4.68;1.90;;;;;;;9.44;52.66;99052.91;5033325;28;20190;-61
2023/01/07 09:11:19;;;;;;;6.93;3.38;;;;;;;9.52;53.14;99037.00;5033139;28;20743;-60
2023/01/07 09:13:45;;;;;;;16.15;8.65;;;;;;;9.47;53.33;99010.56;5032831;28;20261;-61
2023/01/07 09:16:10;;;;;;;4.68;2.85;;;;;;;9.31;51.78;98974.44;5034137;28;20178;-62
2023/01/07 09:18:36;;;;;;;4.35;2.67;;;;;;;9.85;52.28;99038.56;5055002;28;20527;-61
2023/01/07 09:21:01;;;;;;;4.50;2.78;;;;;;;9.94;51.79;99043.22;5055047;28;20620;-61
2023/01/07 09:23:26;;;;;;;5.53;2.05;;;;;;;10.09;51.55;99052.75;5054663;28;20169;-61
2023/01/07 09:25:52;;;;;;;4.97;2.90;;;;;;;10.22;51.96;99049.34;5054911;28;20200;-61
2023/01/07 09:28:17;;;;;;;5.25;2.60;;;;;;;10.16;51.44;99015.28;5054876;28;20178;-61
2023/01/07 09:30:42;;;;;;;2.78;2.22;;;;;;;10.43;51.42;99024.00;5054790;28;20517;-61
2023/01/07 09:33:08;;;;;;;3.60;2.92;;;;;;;10.30;51.40;98984.28;5054870;28;20228;-61
2023/01/07 09:35:33;;;;;;;3.25;2.72;;;;;;;10.17;51.51;98947.94;5054725;28;20341;-61
2023/01/07 09:37:59;;;;;;;4.43;2.65;;;;;;;10.47;52.10;98984.13;5054718;28;20177;-61
2023/01/07 09:40:29;;;;;;;5.88;4.72;;;;;;;10.81;53.28;99022.59;5055166;28;20320;-61
2023/01/07 09:43:02;;;;;;;6.57;4.15;;;;;;;10.87;54.38;99012.72;5055161;28;20185;-61
2023/01/07 09:45:35;;;;;;;5.22;4.60;;;;;;;10.90;55.11;99001.31;5055182;28;20172;-61
2023/01/07 09:48:08;;;;;;;8.75;4.53;;;;;;;10.67;55.68;98944.94;5054529;28;20174;-61
2023/01/07 09:50:36;;;;;;;5.30;4.45;;;;;;;11.04;56.12;99009.09;5054207;28;20166;-61
2023/01/07 09:53:07;;;;;;;6.88;4.50;;;;;;;11.00;55.95;99005.03;5054683;28;20186;-61
2023/01/07 09:55:35;;;;;;;10.32;6.93;;;;;;;11.14;56.13;99007.63;5054296;28;20671;-61
2023/01/07 09:58:00;;;;;;;8.55;5.88;;;;;;;10.60;55.50;98912.59;5054331;28;20170;-61
2023/01/07 10:00:29;;;;;;;5.95;5.10;;;;;;;11.20;55.39;98989.94;5053588;28;20192;-62
2023/01/07 10:03:38;;;;;;;9.13;4.25;;;;;;;11.19;55.40;98997.78;5054172;28;20173;-61
2023/01/07 10:06:11;;;;;;;7.57;4.13;;;;;;;11.03;55.14;98940.13;5054181;28;20228;-61
2023/01/07 10:08:55;;;;;;;8.93;4.55;;;;;;;11.00;54.99;98928.19;5054980;28;20186;-61
2023/01/07 10:11:39;;;;;;;11.10;6.63;;;;;;;11.19;55.49;98983.09;5054720;28;20219;-61
2023/01/07 10:14:30;;;;;;;10.27;5.97;;;;;;;11.31;55.85;98981.50;5054343;28;20185;-61
2023/01/07 10:17:07;;;;;;;7.65;5.80;;;;;;;11.35;55.20;98977.78;5054609;28;20212;-61
2023/01/07 10:19:47;;;;;;;9.85;5.05;;;;;;;11.37;54.93;98965.59;5053909;28;20609;-61
2023/01/07 10:22:20;;;;;;;7.75;5.20;;;;;;;11.51;54.85;98968.13;5053889;28;20663;-61
2023/01/07 10:24:51;;;;;;;11.00;5.55;;;;;;;11.00;54.53;98888.50;5054173;28;20227;-61
2023/01/07 10:27:29;;;;;;;8.73;6.05;;;;;;;11.16;54.75;98907.34;5051818;28;20169;-61
2023/01/07 10:30:00;;;;;;;9.32;5.55;;;;;;;11.62;54.54;98960.53;5053601;28;20196;-61
2023/01/07 10:32:30;;;;;;;9.90;5.80;;;;;;;11.67;54.52;98950.72;5053712;28;20201;-61
2023/01/07 10:34:58;;;;;;;11.13;6.18;;;;;;;11.21;54.08;98866.44;5053557;28;20659;-61
2023/01/07 10:37:36;;;;;;;10.93;5.35;;;;;;;11.54;53.74;98903.13;5053529;28;20180;-61
2023/01/07 10:40:11;;;;;;;7.50;5.82;;;;;;;11.83;54.06;98948.78;5053458;28;20178;-61
2023/01/07 10:42:51;;;;;;;12.35;6.80;;;;;;;11.90;53.79;98943.09;5053513;28;20188;-61
2023/01/07 10:45:38;;;;;;;8.80;6.00;;;;;;;11.94;53.51;98936.78;5054174;28;20260;-61
2023/01/07 10:48:52;;;;;;;8.35;5.55;;;;;;;12.01;53.37;98926.84;5053069;28;20192;-61
2023/01/07 10:51:44;;;;;;;8.48;5.30;;;;;;;12.10;53.49;98926.22;5025709;28;20767;-61
2023/01/07 10:54:09;;;;;;;12.65;6.18;;;;;;;12.19;54.02;98920.44;5011499;28;20215;-61
2023/01/07 10:56:46;;;;;;;10.45;6.60;;;;;;;11.98;54.00;98869.97;5011411;28;20771;-61
2023/01/07 10:59:18;;;;;;;14.05;6.65;;;;;;;12.02;54.12;98867.06;5011957;28;20198;-62
2023/01/07 11:01:50;;;;;;;15.73;7.65;;;;;;;12.34;53.92;98911.59;5011105;28;20358;-61
2023/01/07 11:04:16;;;;;;;14.52;7.82;;;;;;;12.42;52.90;98906.75;5011339;28;20179;-61
2023/01/07 11:06:57;;;;;;;16.40;6.50;;;;;;;12.51;52.58;98908.69;5011264;28;20250;-61
2023/01/07 11:09:28;;;;;;;15.75;8.10;;;;;;;12.54;53.04;98904.13;5011627;28;20167;-61
2023/01/07 11:11:56;;;;;;;17.35;9.25;;;;;;;12.48;53.09;98883.78;5010624;28;20265;-62
2023/01/07 11:14:27;;;;;;;9.88;5.75;;;;;;;12.47;53.25;98891.66;5011644;28;20294;-61
2023/01/07 11:17:14;;;;;;;13.60;7.78;;;;;;;12.48;52.82;98885.56;5011581;28;20183;-62
2023/01/07 11:19:45;;;;;;;33.85;12.75;;;;;;;12.54;53.03;98887.75;5011471;28;20172;-62
2023/01/07 11:22:25;;;;;;;157.80;44.42;;;;;;;12.55;52.71;98879.81;5033391;28;20711;-61
2023/01/07 11:24:55;;;;;;;59.08;19.92;;;;;;;12.48;53.21;98863.00;5050534;28;20307;-61
2023/01/07 11:27:23;;;;;;;20.67;8.55;;;;;;;12.31;52.84;98821.00;5050319;28;20177;-61
2023/01/07 11:30:06;;;;;;;15.30;6.93;;;;;;;12.55;53.48;98872.03;5050394;28;20186;-61
2023/01/07 11:32:39;;;;;;;10.43;5.88;;;;;;;12.51;53.89;98868.00;5052550;28;20251;-61
2023/01/07 11:35:05;;;;;;;15.30;7.70;;;;;;;12.45;53.96;98857.22;5052437;28;20209;-61
2023/01/07 11:37:42;;;;;;;15.23;8.00;;;;;;;12.48;53.88;98865.59;5053132;28;20184;-60
2023/01/07 11:40:14;;;;;;;10.38;7.05;;;;;;;12.51;54.36;98857.63;5052481;28;20585;-60
2023/01/07 11:43:03;;;;;;;13.77;6.40;;;;;;;12.47;54.21;98850.13;5052483;28;20174;-60
2023/01/07 11:45:35;;;;;;;12.73;6.15;;;;;;;12.42;54.57;98839.28;5053180;28;20169;-61
2023/01/07 11:48:03;;;;;;;8.82;6.07;;;;;;;12.38;55.32;98850.78;5052093;28;20181;-61
2023/01/07 11:50:43;;;;;;;9.57;5.65;;;;;;;12.27;54.99;98854.13;5052638;28;20194;-61